createdAt,value
2019-02-21T00:01:02.697Z,94.50
2019-02-21T00:03:32.436Z,94.60
2019-02-21T00:06:02.527Z,94.70
2019-02-21T00:08:32.746Z,94.80
2019-02-21T00:11:03.547Z,95.00
2019-02-21T00:13:34.309Z,94.80
2019-02-21T00:16:05.267Z,94.80
2019-02-21T00:18:35.354Z,95.00
2019-02-21T00:21:05.574Z,95.40
2019-02-21T00:23:36.005Z,95.70
2019-02-21T00:26:06.720Z,95.50
2019-02-21T00:28:37.493Z,95.50
2019-02-21T00:31:07.886Z,95.50
2019-02-21T00:33:38.231Z,95.50
2019-02-21T00:36:08.320Z,95.50
2019-02-21T00:38:38.688Z,95.50
2019-02-21T00:41:09.504Z,95.30
2019-02-21T00:43:40.140Z,95.40
2019-02-21T00:46:10.166Z,95.30
2019-02-21T00:48:40.543Z,95.60
2019-02-21T00:51:10.914Z,95.20
2019-02-21T00:53:40.675Z,95.20
2019-02-21T00:56:11.104Z,94.80
2019-02-21T00:58:41.166Z,94.40
2019-02-21T01:01:11.807Z,94.70
2019-02-21T01:03:42.295Z,94.90
2019-02-21T01:06:12.688Z,94.80
2019-02-21T01:08:42.553Z,95.30
2019-02-21T01:11:12.890Z,95.50
2019-02-21T01:13:42.211Z,96.00
2019-02-21T01:16:12.314Z,95.90
2019-02-21T01:18:42.935Z,96.00
2019-02-21T01:21:12.723Z,96.30
2019-02-21T01:23:42.413Z,96.80
2019-02-21T01:26:12.203Z,97.40
2019-02-21T01:28:42.267Z,97.50
2019-02-21T01:31:12.438Z,98.00
2019-02-21T01:33:42.553Z,98.30
2019-02-21T01:36:11.909Z,98.20
2019-02-21T01:38:42.582Z,97.50
2019-02-21T01:41:13.357Z,97.60
2019-02-21T01:43:43.095Z,97.80
2019-02-21T01:46:12.823Z,97.50
2019-02-21T01:48:43.203Z,97.50
2019-02-21T01:51:13.397Z,97.60
2019-02-21T01:53:43.739Z,97.80
2019-02-21T01:56:13.781Z,97.90
2019-02-21T01:58:43.516Z,97.90
2019-02-21T02:01:14.126Z,98.30
2019-02-21T02:03:44.575Z,97.70
2019-02-21T02:06:14.153Z,97.30
2019-02-21T02:08:44.213Z,97.20
2019-02-21T02:11:14.896Z,96.80
2019-02-21T02:13:44.234Z,96.90
2019-02-21T02:16:14.200Z,97.30
2019-02-21T02:18:44.223Z,97.20
2019-02-21T02:21:14.283Z,97.40
2019-02-21T02:23:44.298Z,97.90
2019-02-21T02:26:14.983Z,98.30
2019-02-21T02:28:45.648Z,98.10
2019-02-21T02:31:22.733Z,98.10
2019-02-21T02:33:48.061Z,98.50
2019-02-21T02:36:17.760Z,98.70
2019-02-21T02:38:48.049Z,99.10
2019-02-21T02:41:18.503Z,99.10
2019-02-21T02:43:49.186Z,99.20
2019-02-21T02:46:19.607Z,99.00
2019-02-21T02:48:49.963Z,99.40
2019-02-21T02:51:20.313Z,99.40
2019-02-21T02:53:50.683Z,99.80
2019-02-21T02:56:21.076Z,99.60
2019-02-21T02:58:51.512Z,99.80
2019-02-21T03:01:34.040Z,99.30
2019-02-21T03:03:52.862Z,99.20
2019-02-21T03:06:23.535Z,99.20
2019-02-21T03:08:53.524Z,99.00
2019-02-21T03:11:23.943Z,98.60
2019-02-21T03:13:54.248Z,98.50
2019-02-21T03:16:23.982Z,98.20
2019-02-21T03:18:54.412Z,98.40
2019-02-21T03:21:24.173Z,98.80
2019-02-21T03:23:54.463Z,99.60
2019-02-21T03:26:24.593Z,99.50
2019-02-21T03:28:54.323Z,99.90
2019-02-21T03:31:23.950Z,99.90
2019-02-21T03:33:54.290Z,99.70
2019-02-21T03:36:24.951Z,99.20
2019-02-21T03:38:55.689Z,98.80
2019-02-21T03:41:25.824Z,98.50
2019-02-21T03:43:56.215Z,98.40
2019-02-21T03:46:26.574Z,98.70
2019-02-21T03:48:56.973Z,98.60
2019-02-21T03:51:26.956Z,99.60
2019-02-21T03:53:56.961Z,99.30
2019-02-21T03:56:26.527Z,99.60
2019-02-21T03:58:56.965Z,99.40
2019-02-21T04:01:27.644Z,98.80
2019-02-21T04:03:57.706Z,98.80
2019-02-21T04:06:27.886Z,98.70
2019-02-21T04:08:57.974Z,98.30
2019-02-21T04:11:28.348Z,98.10
2019-02-21T04:13:58.476Z,98.30
2019-02-21T04:16:29.251Z,98.20
2019-02-21T04:18:59.324Z,98.40
2019-02-21T04:21:29.788Z,98.40
2019-02-21T04:23:59.910Z,98.30
2019-02-21T04:26:30.312Z,98.40
2019-02-21T04:29:00.726Z,98.50
2019-02-21T04:31:31.219Z,98.90
2019-02-21T04:34:01.178Z,99.50
2019-02-21T04:36:31.277Z,99.70
2019-02-21T04:39:01.642Z,99.90
2019-02-21T04:41:32.426Z,99.90
2019-02-21T04:44:04.032Z,99.90
2019-02-21T04:46:33.400Z,99.00
2019-02-21T04:49:03.100Z,98.20
2019-02-21T04:51:33.548Z,97.90
2019-02-21T04:54:03.788Z,98.10
2019-02-21T04:56:33.500Z,98.30
2019-02-21T04:59:03.232Z,98.40
2019-02-21T05:01:33.291Z,99.00
2019-02-21T05:04:04.897Z,99.80
2019-02-21T05:06:35.706Z,99.90
2019-02-21T05:09:07.521Z,99.90
2019-02-21T05:11:38.129Z,99.90
2019-02-21T05:14:08.498Z,99.90
2019-02-21T05:16:38.565Z,99.90
2019-02-21T05:19:09.310Z,99.90
2019-02-21T05:21:39.999Z,99.90
2019-02-21T05:24:09.685Z,99.90
2019-02-21T05:26:50.166Z,99.90
2019-02-21T05:29:19.957Z,99.90
2019-02-21T05:32:11.709Z,99.90
2019-02-21T05:34:59.707Z,99.90
2019-02-21T05:37:52.073Z,99.90
2019-02-21T05:40:41.940Z,99.90
2019-02-21T05:43:31.414Z,99.90
2019-02-21T05:46:18.703Z,99.90
2019-02-21T05:49:20.418Z,99.90
2019-02-21T05:51:55.137Z,99.90
2019-02-21T05:54:36.528Z,99.90
2019-02-21T05:57:34.637Z,99.90
2019-02-21T06:00:36.942Z,99.90
2019-02-21T06:03:21.021Z,99.90
2019-02-21T06:06:17.492Z,99.90
2019-02-21T06:09:38.564Z,99.90
2019-02-21T06:12:17.177Z,99.90
2019-02-21T06:15:21.610Z,99.90
2019-02-21T06:18:10.279Z,99.90
2019-02-21T06:20:58.821Z,99.90
2019-02-21T06:23:45.922Z,99.90
2019-02-21T06:26:19.860Z,99.90
2019-02-21T06:29:12.275Z,99.90
2019-02-21T06:31:42.629Z,99.90
2019-02-21T06:34:12.692Z,99.90
2019-02-21T06:36:43.019Z,99.90
2019-02-21T06:39:13.091Z,99.90
2019-02-21T06:41:42.900Z,99.90
2019-02-21T06:44:12.364Z,99.60
2019-02-21T06:46:43.289Z,99.70
2019-02-21T06:49:14.911Z,99.70
2019-02-21T06:51:45.658Z,99.90
2019-02-21T06:54:15.841Z,99.50
2019-02-21T06:56:48.550Z,99.20
2019-02-21T06:59:19.055Z,99.20
2019-02-21T07:01:49.755Z,99.30
2019-02-21T07:04:19.437Z,99.20
2019-02-21T07:06:49.814Z,99.10
2019-02-21T07:09:20.513Z,99.50
2019-02-21T07:11:50.471Z,98.90
2019-02-21T07:14:20.564Z,99.00
2019-02-21T07:16:51.469Z,98.30
2019-02-21T07:19:21.694Z,98.20
2019-02-21T07:21:52.118Z,98.10
2019-02-21T07:24:31.534Z,97.40
2019-02-21T07:27:03.698Z,96.50
2019-02-21T07:29:34.445Z,96.30
2019-02-21T07:35:30.314Z,96.00
2019-02-21T07:38:05.366Z,95.90
2019-02-21T07:40:35.083Z,95.90
2019-02-21T07:43:05.635Z,95.70
2019-02-21T07:45:36.398Z,95.60
2019-02-21T07:48:11.405Z,95.50
2019-02-21T07:50:41.173Z,95.30
2019-02-21T07:53:10.976Z,95.00
2019-02-21T07:55:41.405Z,94.80
2019-02-21T07:58:11.445Z,94.30
2019-02-21T08:00:41.387Z,94.20
2019-02-21T08:03:12.213Z,94.30
2019-02-21T08:05:42.319Z,94.30
2019-02-21T08:08:13.396Z,94.10
2019-02-21T08:10:43.790Z,94.10
2019-02-21T08:13:13.726Z,93.60
2019-02-21T08:15:44.258Z,93.20
2019-02-21T08:18:14.600Z,92.80
2019-02-21T08:20:45.020Z,92.80
2019-02-21T08:23:14.407Z,92.70
2019-02-21T08:25:45.185Z,93.10
2019-02-21T08:28:15.859Z,92.90
2019-02-21T08:30:46.174Z,93.00
2019-02-21T08:33:41.211Z,91.90
2019-02-21T08:36:10.947Z,91.70
2019-02-21T08:38:41.002Z,91.00
2019-02-21T08:41:14.375Z,91.20
2019-02-21T08:43:43.744Z,91.20
2019-02-21T08:46:18.290Z,90.90
2019-02-21T08:48:49.293Z,90.70
2019-02-21T08:51:47.119Z,90.40
2019-02-21T08:54:17.607Z,90.50
2019-02-21T08:56:56.441Z,90.80
2019-02-21T08:59:26.896Z,90.60
2019-02-21T09:01:57.041Z,89.40
2019-02-21T09:04:28.160Z,89.20
2019-02-21T09:06:58.604Z,89.50
2019-02-21T09:09:33.383Z,90.20
2019-02-21T09:12:05.411Z,89.50
2019-02-21T09:14:35.335Z,89.70
2019-02-21T09:18:14.418Z,87.80
2019-02-21T09:21:20.252Z,86.50
2019-02-21T09:23:50.540Z,84.20
2019-02-21T09:26:21.692Z,84.60
2019-02-21T09:28:52.011Z,84.00
2019-02-21T09:31:22.418Z,82.40
2019-02-21T09:33:52.379Z,81.30
2019-02-21T09:36:22.377Z,81.00
2019-02-21T09:38:53.141Z,80.40
2019-02-21T09:41:23.898Z,80.10
2019-02-21T09:43:53.968Z,79.30
2019-02-21T09:46:24.001Z,79.10
2019-02-21T09:49:02.909Z,78.60
2019-02-21T09:51:33.157Z,78.00
2019-02-21T09:54:03.716Z,77.80
2019-02-21T09:56:34.089Z,77.70
2019-02-21T09:59:05.615Z,77.00
2019-02-21T10:01:35.970Z,77.40
2019-02-21T10:04:05.766Z,77.90
2019-02-21T10:06:35.941Z,77.80
2019-02-21T10:09:06.387Z,77.70
2019-02-21T10:11:37.179Z,77.90
2019-02-21T10:14:07.529Z,77.90
2019-02-21T10:16:38.049Z,78.00
2019-02-21T10:19:07.995Z,78.20
2019-02-21T10:21:38.126Z,78.00
2019-02-21T10:24:08.139Z,77.90
2019-02-21T10:26:38.531Z,77.20
2019-02-21T10:29:08.284Z,76.60
2019-02-21T10:31:38.207Z,76.40
2019-02-21T10:34:08.491Z,76.10
2019-02-21T10:36:38.945Z,77.00
2019-02-21T10:39:08.938Z,75.10
2019-02-21T10:41:39.313Z,74.20
2019-02-21T10:44:09.791Z,74.10
2019-02-21T10:46:40.474Z,72.40
2019-02-21T10:49:10.875Z,72.60
2019-02-21T10:51:40.766Z,71.80
2019-02-21T10:54:11.119Z,71.20
2019-02-21T10:56:41.129Z,71.00
2019-02-21T10:59:10.961Z,69.30
2019-02-21T11:01:40.702Z,68.70
2019-02-21T11:04:10.852Z,68.80
2019-02-21T11:06:41.028Z,68.60
2019-02-21T11:09:19.054Z,69.20
2019-02-21T11:11:50.049Z,68.80
2019-02-21T11:14:19.771Z,69.60
2019-02-21T11:16:50.153Z,69.60
2019-02-21T11:19:20.534Z,69.80
2019-02-21T11:21:50.633Z,70.30
2019-02-21T11:24:20.711Z,70.10
2019-02-21T11:26:50.995Z,69.70
2019-02-21T11:29:21.095Z,69.70
2019-02-21T11:31:50.901Z,68.40
2019-02-21T11:34:21.371Z,69.30
2019-02-21T11:36:51.352Z,67.80
2019-02-21T11:39:21.862Z,67.60
2019-02-21T11:41:52.346Z,67.00
2019-02-21T11:44:22.873Z,66.40
2019-02-21T11:46:53.130Z,67.20
2019-02-21T11:49:23.782Z,66.40
2019-02-21T11:51:53.852Z,66.80
2019-02-21T11:54:27.257Z,64.40
2019-02-21T11:56:56.302Z,63.80
2019-02-21T11:59:26.070Z,64.50
2019-02-21T12:01:56.105Z,65.20
2019-02-21T12:04:25.789Z,63.50
2019-02-21T12:06:56.225Z,63.30
2019-02-21T12:09:26.574Z,64.20
2019-02-21T12:11:56.974Z,62.80
2019-02-21T12:14:27.326Z,62.70
2019-02-21T12:16:58.161Z,63.10
2019-02-21T12:19:28.774Z,62.80
2019-02-21T12:21:59.520Z,61.90
2019-02-21T12:24:29.756Z,62.40
2019-02-21T12:26:59.854Z,62.60
2019-02-21T12:29:29.586Z,63.00
2019-02-21T12:31:59.661Z,62.70
2019-02-21T12:34:30.113Z,62.60
2019-02-21T12:37:00.464Z,62.30
2019-02-21T12:39:30.696Z,62.40
2019-02-21T12:42:00.799Z,61.50
2019-02-21T12:44:31.315Z,61.10
2019-02-21T12:47:01.427Z,61.50
2019-02-21T12:49:32.800Z,61.30
2019-02-21T12:52:02.913Z,60.40
2019-02-21T12:54:33.094Z,59.70
2019-02-21T12:57:05.337Z,59.60
2019-02-21T12:59:35.866Z,58.20
2019-02-21T13:02:05.243Z,57.50
2019-02-21T13:04:35.707Z,58.20
2019-02-21T13:07:06.495Z,57.00
2019-02-21T13:09:36.889Z,56.60
2019-02-21T13:12:07.338Z,56.70
2019-02-21T13:14:38.389Z,56.60
2019-02-21T13:17:09.374Z,56.70
2019-02-21T13:19:40.147Z,56.80
2019-02-21T13:22:10.050Z,57.00
2019-02-21T13:24:40.455Z,57.90
2019-02-21T13:27:10.817Z,58.50
2019-02-21T13:29:41.767Z,58.10
2019-02-21T13:32:12.341Z,57.90
2019-02-21T13:34:42.283Z,58.10
2019-02-21T13:37:13.266Z,58.50
2019-02-21T13:40:02.383Z,58.60
2019-02-21T13:42:33.328Z,58.30
2019-02-21T13:45:04.395Z,57.90
2019-02-21T13:47:34.796Z,57.90
2019-02-21T13:50:10.237Z,57.90
2019-02-21T13:52:39.985Z,57.70
2019-02-21T13:55:13.753Z,58.40
2019-02-21T13:57:47.109Z,58.90
2019-02-21T14:00:18.661Z,59.20
2019-02-21T14:02:48.503Z,59.00
2019-02-21T14:05:20.178Z,58.20
2019-02-21T14:07:50.937Z,58.20
2019-02-21T14:10:21.383Z,58.60
2019-02-21T14:12:51.971Z,59.10
2019-02-21T14:15:25.483Z,58.60
2019-02-21T14:17:55.680Z,58.40
2019-02-21T14:20:27.354Z,58.60
2019-02-21T14:22:57.721Z,58.50
2019-02-21T14:25:40.022Z,59.10
2019-02-21T14:28:01.429Z,59.10
2019-02-21T14:30:31.989Z,59.40
2019-02-21T14:33:03.252Z,59.50
2019-02-21T14:35:35.132Z,59.80
2019-02-21T14:38:05.349Z,60.20
2019-02-21T14:40:36.451Z,60.70
2019-02-21T14:43:06.925Z,61.10
2019-02-21T14:45:37.085Z,61.00
2019-02-21T14:48:07.612Z,61.40
2019-02-21T14:50:37.733Z,61.90
2019-02-21T14:53:07.874Z,62.60
2019-02-21T14:55:39.920Z,63.40
2019-02-21T14:58:09.155Z,63.40
2019-02-21T15:00:40.619Z,63.20
2019-02-21T15:03:21.272Z,62.90
2019-02-21T15:05:43.729Z,63.60
2019-02-21T15:08:14.142Z,63.90
2019-02-21T15:11:02.338Z,64.30
2019-02-21T15:13:32.638Z,64.80
2019-02-21T15:16:10.885Z,65.10
2019-02-21T15:18:41.137Z,65.60
2019-02-21T15:21:23.734Z,65.90
2019-02-21T15:23:57.444Z,66.30
2019-02-21T15:26:47.971Z,67.20
2019-02-21T15:29:19.118Z,67.90
2019-02-21T15:31:50.501Z,68.80
2019-02-21T15:34:21.118Z,69.10
2019-02-21T15:37:02.625Z,69.60
2019-02-21T15:39:42.753Z,70.40
2019-02-21T15:42:44.231Z,70.90
2019-02-21T15:45:34.218Z,71.30
2019-02-21T15:48:07.513Z,71.70
2019-02-21T15:50:38.315Z,71.90
2019-02-21T15:53:08.584Z,72.40
2019-02-21T15:55:38.667Z,72.60
2019-02-21T15:58:34.662Z,72.80
2019-02-21T16:01:05.124Z,73.20
2019-02-21T16:03:35.888Z,73.50
2019-02-21T16:10:45.598Z,74.20
2019-02-21T16:13:19.017Z,74.90
2019-02-21T16:15:55.739Z,75.60
2019-02-21T16:18:36.365Z,76.10
2019-02-21T16:21:06.922Z,76.30
2019-02-21T16:24:13.700Z,76.60
2019-02-21T16:26:45.167Z,76.40
2019-02-21T16:29:15.658Z,76.50
2019-02-21T16:31:47.251Z,76.60
2019-02-21T16:34:17.872Z,77.30
2019-02-21T16:36:48.338Z,78.50
2019-02-21T16:39:19.174Z,79.80
2019-02-21T16:41:53.002Z,80.90
2019-02-21T16:44:34.851Z,81.90
2019-02-21T16:47:12.518Z,82.50
2019-02-21T16:49:54.751Z,83.50
2019-02-21T16:59:57.219Z,86.30
2019-02-21T17:02:27.031Z,87.30
2019-02-21T17:04:57.128Z,87.80
2019-02-21T17:07:27.197Z,88.60
2019-02-21T17:09:56.979Z,89.80
2019-02-21T17:12:27.246Z,90.30
2019-02-21T17:14:57.720Z,90.40
2019-02-21T17:17:27.950Z,92.20
2019-02-21T17:19:58.484Z,90.20
2019-02-21T17:22:28.724Z,90.30
2019-02-21T17:24:59.516Z,90.70
2019-02-21T17:27:30.219Z,90.90
2019-02-21T17:30:00.985Z,91.10
2019-02-21T17:32:31.644Z,91.40
2019-02-21T17:35:04.358Z,91.70
2019-02-21T17:37:35.004Z,92.10
2019-02-21T17:40:05.363Z,92.20
2019-02-21T17:42:35.477Z,92.30
2019-02-21T17:45:06.010Z,92.50
2019-02-21T17:47:35.952Z,92.70
2019-02-21T17:50:05.614Z,92.80
2019-02-21T17:52:35.825Z,93.00
2019-02-21T17:55:08.621Z,92.90
2019-02-21T17:57:39.340Z,93.10
2019-02-21T18:00:12.452Z,93.00
2019-02-21T18:02:42.921Z,93.40
2019-02-21T18:05:13.530Z,93.30
2019-02-21T18:07:47.029Z,93.30
2019-02-21T18:10:17.971Z,93.00
2019-02-21T18:12:47.944Z,92.90
2019-02-21T18:15:18.869Z,92.90
2019-02-21T18:17:49.346Z,93.20
2019-02-21T18:20:19.252Z,92.90
2019-02-21T18:22:49.783Z,93.00
2019-02-21T18:25:26.991Z,92.60
2019-02-21T18:28:00.509Z,92.30
2019-02-21T18:30:32.177Z,92.30
2019-02-21T18:33:03.886Z,92.30
2019-02-21T18:35:35.252Z,91.90
2019-02-21T18:38:06.245Z,91.60
2019-02-21T18:40:36.600Z,91.50
2019-02-21T18:43:07.715Z,91.20
2019-02-21T18:45:38.399Z,90.80
2019-02-21T18:48:09.880Z,90.60
2019-02-21T18:50:41.846Z,90.20
2019-02-21T18:53:12.239Z,89.90
2019-02-21T18:55:42.445Z,89.10
2019-02-21T18:58:12.422Z,88.50
2019-02-21T19:00:42.965Z,88.10
2019-02-21T19:03:12.786Z,87.00
2019-02-21T19:05:44.250Z,86.30
2019-02-21T19:08:16.060Z,86.50
2019-02-21T19:10:47.221Z,87.40
2019-02-21T19:13:18.694Z,87.90
2019-02-21T19:15:49.552Z,88.10
2019-02-21T19:18:24.359Z,88.20
2019-02-21T19:20:54.930Z,88.50
2019-02-21T19:23:28.443Z,88.20
2019-02-21T19:25:58.599Z,87.70
2019-02-21T19:28:30.467Z,88.40
2019-02-21T19:31:07.530Z,87.70
2019-02-21T19:33:38.580Z,86.90
2019-02-21T19:36:11.087Z,85.80
2019-02-21T19:38:42.149Z,84.40
2019-02-21T19:41:15.739Z,83.20
2019-02-21T19:43:45.845Z,82.80
2019-02-21T19:46:16.286Z,81.90
2019-02-21T19:48:47.395Z,81.50
2019-02-21T19:51:17.694Z,81.40
2019-02-21T19:53:52.591Z,80.90
2019-02-21T19:56:25.693Z,81.50
2019-02-21T19:58:58.687Z,81.90
2019-02-21T20:01:30.075Z,81.70
2019-02-21T20:04:01.253Z,81.20
2019-02-21T20:06:32.597Z,81.30
2019-02-21T20:09:04.584Z,81.90
2019-02-21T20:11:37.802Z,83.30
2019-02-21T20:14:13.977Z,83.40
2019-02-21T20:16:47.389Z,82.80
2019-02-21T20:19:20.586Z,82.40
2019-02-21T20:21:54.771Z,82.20
2019-02-21T20:24:29.419Z,82.30
2019-02-21T20:27:02.770Z,82.10
2019-02-21T20:29:36.061Z,81.50
2019-02-21T20:35:21.210Z,80.90
2019-02-21T20:37:54.679Z,81.10
2019-02-21T20:40:35.492Z,81.60
2019-02-21T20:43:07.657Z,82.10
2019-02-21T20:45:51.888Z,82.90
2019-02-21T20:48:13.082Z,82.80
2019-02-21T20:50:44.392Z,82.40
2019-02-21T20:53:15.634Z,82.50
2019-02-21T20:55:48.209Z,81.50
2019-02-21T20:58:19.451Z,81.70
2019-02-21T21:00:54.950Z,81.70
2019-02-21T21:03:28.021Z,82.30
2019-02-21T21:06:01.195Z,81.50
2019-02-21T21:08:42.514Z,81.00
2019-02-21T21:11:06.447Z,81.10
2019-02-21T21:13:37.044Z,81.20
2019-02-21T21:16:07.604Z,80.90
2019-02-21T21:18:37.633Z,80.90
2019-02-21T21:21:07.363Z,80.50
2019-02-21T21:23:36.792Z,80.70
2019-02-21T21:26:07.034Z,80.30
2019-02-21T21:28:37.913Z,80.20
2019-02-21T21:31:08.615Z,80.20
2019-02-21T21:33:39.198Z,80.10
2019-02-21T21:36:10.049Z,79.50
2019-02-21T21:38:40.706Z,80.10
2019-02-21T21:41:11.612Z,79.80
2019-02-21T21:43:42.036Z,79.60
2019-02-21T21:46:12.948Z,78.60
2019-02-21T21:48:44.106Z,78.30
2019-02-21T21:51:14.747Z,78.00
2019-02-21T21:53:44.530Z,77.90
2019-02-21T21:56:15.097Z,77.30
2019-02-21T21:58:45.167Z,77.00
2019-02-21T22:01:15.779Z,77.50
2019-02-21T22:03:47.729Z,77.00
2019-02-21T22:06:17.811Z,77.20
2019-02-21T22:08:47.947Z,77.50
2019-02-21T22:11:17.554Z,76.90
2019-02-21T22:13:47.588Z,76.90
2019-02-21T22:16:17.569Z,76.60
2019-02-21T22:18:48.408Z,76.50
2019-02-21T22:21:18.797Z,76.50
2019-02-21T22:23:48.315Z,76.50
2019-02-21T22:26:18.403Z,76.50
2019-02-21T22:28:49.131Z,76.40
2019-02-21T22:31:19.202Z,76.50
2019-02-21T22:33:49.288Z,76.70
2019-02-21T22:36:19.672Z,77.20
2019-02-21T22:38:49.616Z,79.20
2019-02-21T22:41:20.085Z,78.60
2019-02-21T22:43:50.550Z,79.80
2019-02-21T22:46:21.133Z,80.80
2019-02-21T22:48:51.270Z,81.90
2019-02-21T22:51:21.844Z,82.10
2019-02-21T22:53:52.180Z,81.90
2019-02-21T22:56:22.585Z,81.70
2019-02-21T22:58:52.001Z,81.70
2019-02-21T23:01:40.019Z,82.00
2019-02-21T23:04:25.676Z,82.10
2019-02-21T23:07:15.455Z,82.40
2019-02-21T23:09:46.227Z,85.10
2019-02-21T23:12:16.555Z,87.70
2019-02-21T23:14:46.655Z,88.00
2019-02-21T23:17:17.067Z,88.30
2019-02-21T23:19:47.572Z,89.10
2019-02-21T23:22:18.005Z,89.20
2019-02-21T23:24:47.943Z,88.90
2019-02-21T23:27:18.300Z,88.60
2019-02-21T23:29:48.680Z,88.10
2019-02-21T23:32:19.098Z,87.00
2019-02-21T23:34:50.254Z,87.60
2019-02-21T23:37:20.495Z,87.50
2019-02-21T23:39:50.726Z,87.40
2019-02-21T23:42:21.417Z,87.40
2019-02-21T23:44:50.768Z,87.80
2019-02-21T23:47:20.993Z,87.60
2019-02-21T23:49:51.455Z,86.90
2019-02-21T23:52:21.826Z,86.70
2019-02-21T23:54:52.154Z,86.60
2019-02-21T23:57:22.229Z,86.30
2019-02-21T23:59:52.400Z,86.70
